sensor_id;sensor_type;location;lat;lon;timestamp;P1;durP1;ratioP1;P2;durP2;ratioP2
54360;SDS011;40258;53.936;27.540;2022-10-13T00:02:18;15.80;;;7.82;;
54360;SDS011;40258;53.936;27.540;2022-10-13T00:04:47;12.65;;;7.13;;
54360;SDS011;40258;53.936;27.540;2022-10-13T00:07:15;16.58;;;7.80;;
54360;SDS011;40258;53.936;27.540;2022-10-13T00:09:44;18.83;;;8.10;;
54360;SDS011;40258;53.936;27.540;2022-10-13T00:12:12;15.07;;;7.95;;
54360;SDS011;40258;53.936;27.540;2022-10-13T00:14:40;20.23;;;8.55;;
54360;SDS011;40258;53.936;27.540;2022-10-13T00:17:10;19.70;;;8.55;;
54360;SDS011;40258;53.936;27.540;2022-10-13T00:19:39;15.20;;;7.45;;
54360;SDS011;40258;53.936;27.540;2022-10-13T00:22:09;16.25;;;7.63;;
54360;SDS011;40258;53.936;27.540;2022-10-13T00:24:38;16.58;;;8.10;;
54360;SDS011;40258;53.936;27.540;2022-10-13T00:27:06;12.43;;;7.57;;
54360;SDS011;40258;53.936;27.540;2022-10-13T00:29:35;17.52;;;8.07;;
54360;SDS011;40258;53.936;27.540;2022-10-13T00:32:04;19.10;;;8.25;;
54360;SDS011;40258;53.936;27.540;2022-10-13T00:34:33;18.15;;;8.13;;
54360;SDS011;40258;53.936;27.540;2022-10-13T00:37:04;11.75;;;7.05;;
54360;SDS011;40258;53.936;27.540;2022-10-13T00:39:32;17.17;;;7.60;;
54360;SDS011;40258;53.936;27.540;2022-10-13T00:42:02;14.07;;;6.28;;
54360;SDS011;40258;53.936;27.540;2022-10-13T00:47:32;14.82;;;6.38;;
54360;SDS011;40258;53.936;27.540;2022-10-13T00:50:08;13.55;;;6.47;;
54360;SDS011;40258;53.936;27.540;2022-10-13T00:52:40;10.77;;;5.80;;
54360;SDS011;40258;53.936;27.540;2022-10-13T00:55:11;17.17;;;7.03;;
54360;SDS011;40258;53.936;27.540;2022-10-13T00:57:43;19.73;;;7.28;;
54360;SDS011;40258;53.936;27.540;2022-10-13T01:00:25;14.93;;;6.75;;
54360;SDS011;40258;53.936;27.540;2022-10-13T01:02:55;21.83;;;6.80;;
54360;SDS011;40258;53.936;27.540;2022-10-13T01:05:25;26.65;;;7.82;;
54360;SDS011;40258;53.936;27.540;2022-10-13T01:07:54;19.25;;;6.85;;
54360;SDS011;40258;53.936;27.540;2022-10-13T01:10:26;26.95;;;7.97;;
54360;SDS011;40258;53.936;27.540;2022-10-13T01:13:08;30.60;;;8.80;;
54360;SDS011;40258;53.936;27.540;2022-10-13T01:15:46;19.02;;;7.75;;
54360;SDS011;40258;53.936;27.540;2022-10-13T01:18:25;18.08;;;7.53;;
54360;SDS011;40258;53.936;27.540;2022-10-13T01:21:07;18.73;;;7.13;;
54360;SDS011;40258;53.936;27.540;2022-10-13T01:27:07;23.95;;;8.63;;
54360;SDS011;40258;53.936;27.540;2022-10-13T01:30:15;22.35;;;8.05;;
54360;SDS011;40258;53.936;27.540;2022-10-13T01:36:04;21.30;;;7.85;;
54360;SDS011;40258;53.936;27.540;2022-10-13T01:38:45;30.27;;;8.93;;
54360;SDS011;40258;53.936;27.540;2022-10-13T01:41:24;22.73;;;8.98;;
54360;SDS011;40258;53.936;27.540;2022-10-13T01:43:59;27.35;;;10.32;;
54360;SDS011;40258;53.936;27.540;2022-10-13T01:46:39;21.17;;;9.43;;
54360;SDS011;40258;53.936;27.540;2022-10-13T01:49:11;19.55;;;9.20;;
54360;SDS011;40258;53.936;27.540;2022-10-13T01:51:43;28.50;;;9.63;;
54360;SDS011;40258;53.936;27.540;2022-10-13T01:54:13;33.22;;;8.25;;
54360;SDS011;40258;53.936;27.540;2022-10-13T01:56:49;19.23;;;9.52;;
54360;SDS011;40258;53.936;27.540;2022-10-13T01:59:19;47.95;;;9.00;;
54360;SDS011;40258;53.936;27.540;2022-10-13T02:01:53;23.40;;;9.63;;
54360;SDS011;40258;53.936;27.540;2022-10-13T02:04:36;28.17;;;9.48;;
54360;SDS011;40258;53.936;27.540;2022-10-13T02:07:18;24.77;;;8.80;;
54360;SDS011;40258;53.936;27.540;2022-10-13T02:09:53;21.90;;;8.57;;
54360;SDS011;40258;53.936;27.540;2022-10-13T02:12:30;39.03;;;9.05;;
54360;SDS011;40258;53.936;27.540;2022-10-13T02:15:06;44.80;;;9.23;;
54360;SDS011;40258;53.936;27.540;2022-10-13T02:17:43;25.58;;;7.88;;
54360;SDS011;40258;53.936;27.540;2022-10-13T02:20:12;15.48;;;7.72;;
54360;SDS011;40258;53.936;27.540;2022-10-13T02:22:44;34.63;;;10.68;;
54360;SDS011;40258;53.936;27.540;2022-10-13T02:25:17;21.60;;;8.68;;
54360;SDS011;40258;53.936;27.540;2022-10-13T02:27:46;48.85;;;11.07;;
54360;SDS011;40258;53.936;27.540;2022-10-13T02:30:19;37.78;;;8.63;;
54360;SDS011;40258;53.936;27.540;2022-10-13T02:32:50;32.20;;;9.75;;
54360;SDS011;40258;53.936;27.540;2022-10-13T02:35:19;55.38;;;10.60;;
54360;SDS011;40258;53.936;27.540;2022-10-13T02:37:48;118.95;;;12.45;;
54360;SDS011;40258;53.936;27.540;2022-10-13T02:40:16;103.82;;;13.80;;
54360;SDS011;40258;53.936;27.540;2022-10-13T02:42:45;54.25;;;9.18;;
54360;SDS011;40258;53.936;27.540;2022-10-13T02:45:14;111.95;;;15.93;;
54360;SDS011;40258;53.936;27.540;2022-10-13T02:47:42;88.78;;;10.98;;
54360;SDS011;40258;53.936;27.540;2022-10-13T02:50:13;60.80;;;8.95;;
54360;SDS011;40258;53.936;27.540;2022-10-13T02:52:42;74.03;;;10.20;;
54360;SDS011;40258;53.936;27.540;2022-10-13T02:55:11;19.23;;;6.15;;
54360;SDS011;40258;53.936;27.540;2022-10-13T02:57:43;62.75;;;9.15;;
54360;SDS011;40258;53.936;27.540;2022-10-13T03:00:11;82.53;;;10.57;;
54360;SDS011;40258;53.936;27.540;2022-10-13T03:02:41;70.88;;;8.55;;
54360;SDS011;40258;53.936;27.540;2022-10-13T03:05:10;53.20;;;9.48;;
54360;SDS011;40258;53.936;27.540;2022-10-13T03:07:40;32.50;;;8.25;;
54360;SDS011;40258;53.936;27.540;2022-10-13T03:10:08;54.65;;;8.73;;
54360;SDS011;40258;53.936;27.540;2022-10-13T03:12:37;54.63;;;8.95;;
54360;SDS011;40258;53.936;27.540;2022-10-13T03:15:07;74.47;;;10.48;;
54360;SDS011;40258;53.936;27.540;2022-10-13T03:17:36;104.40;;;12.65;;
54360;SDS011;40258;53.936;27.540;2022-10-13T03:20:05;116.57;;;15.45;;
54360;SDS011;40258;53.936;27.540;2022-10-13T03:22:35;153.15;;;14.93;;
54360;SDS011;40258;53.936;27.540;2022-10-13T03:25:06;112.55;;;14.02;;
54360;SDS011;40258;53.936;27.540;2022-10-13T03:27:40;122.45;;;13.25;;
54360;SDS011;40258;53.936;27.540;2022-10-13T03:30:09;170.77;;;19.40;;
54360;SDS011;40258;53.936;27.540;2022-10-13T03:32:39;179.90;;;17.75;;
54360;SDS011;40258;53.936;27.540;2022-10-13T03:35:08;170.20;;;17.42;;
54360;SDS011;40258;53.936;27.540;2022-10-13T03:37:36;185.52;;;21.60;;
54360;SDS011;40258;53.936;27.540;2022-10-13T03:40:07;138.32;;;16.00;;
54360;SDS011;40258;53.936;27.540;2022-10-13T03:42:36;50.70;;;9.27;;
54360;SDS011;40258;53.936;27.540;2022-10-13T03:45:06;162.45;;;15.00;;
54360;SDS011;40258;53.936;27.540;2022-10-13T03:47:35;52.13;;;7.78;;
54360;SDS011;40258;53.936;27.540;2022-10-13T03:50:05;82.05;;;10.00;;
54360;SDS011;40258;53.936;27.540;2022-10-13T03:52:36;86.60;;;9.98;;
54360;SDS011;40258;53.936;27.540;2022-10-13T03:55:07;36.85;;;6.40;;
54360;SDS011;40258;53.936;27.540;2022-10-13T03:57:36;31.58;;;7.35;;
54360;SDS011;40258;53.936;27.540;2022-10-13T04:00:05;15.15;;;5.55;;
54360;SDS011;40258;53.936;27.540;2022-10-13T04:02:39;54.35;;;8.23;;
54360;SDS011;40258;53.936;27.540;2022-10-13T04:05:08;25.75;;;6.90;;
54360;SDS011;40258;53.936;27.540;2022-10-13T04:07:37;17.75;;;6.50;;
54360;SDS011;40258;53.936;27.540;2022-10-13T04:10:19;101.45;;;9.68;;
54360;SDS011;40258;53.936;27.540;2022-10-13T04:12:48;53.33;;;7.90;;
54360;SDS011;40258;53.936;27.540;2022-10-13T04:15:17;53.05;;;8.30;;
54360;SDS011;40258;53.936;27.540;2022-10-13T04:17:46;41.22;;;6.70;;
54360;SDS011;40258;53.936;27.540;2022-10-13T04:20:15;34.75;;;7.20;;
54360;SDS011;40258;53.936;27.540;2022-10-13T04:22:43;25.92;;;6.22;;
54360;SDS011;40258;53.936;27.540;2022-10-13T04:25:12;45.25;;;7.38;;
54360;SDS011;40258;53.936;27.540;2022-10-13T04:27:42;23.20;;;6.43;;
54360;SDS011;40258;53.936;27.540;2022-10-13T04:30:13;52.67;;;7.68;;
54360;SDS011;40258;53.936;27.540;2022-10-13T04:32:41;47.97;;;8.68;;
54360;SDS011;40258;53.936;27.540;2022-10-13T04:35:10;88.63;;;9.20;;
54360;SDS011;40258;53.936;27.540;2022-10-13T04:37:39;95.40;;;9.45;;
54360;SDS011;40258;53.936;27.540;2022-10-13T04:40:09;66.57;;;8.50;;
54360;SDS011;40258;53.936;27.540;2022-10-13T04:42:38;47.60;;;6.65;;
54360;SDS011;40258;53.936;27.540;2022-10-13T04:45:08;53.95;;;6.90;;
54360;SDS011;40258;53.936;27.540;2022-10-13T04:47:40;61.00;;;8.20;;
54360;SDS011;40258;53.936;27.540;2022-10-13T04:50:09;53.22;;;6.57;;
54360;SDS011;40258;53.936;27.540;2022-10-13T04:52:38;39.67;;;5.57;;
54360;SDS011;40258;53.936;27.540;2022-10-13T04:55:06;37.25;;;6.55;;
54360;SDS011;40258;53.936;27.540;2022-10-13T04:57:35;40.92;;;6.65;;
54360;SDS011;40258;53.936;27.540;2022-10-13T05:00:04;61.05;;;7.70;;
54360;SDS011;40258;53.936;27.540;2022-10-13T05:02:36;47.33;;;5.22;;
54360;SDS011;40258;53.936;27.540;2022-10-13T05:05:05;56.50;;;6.38;;
54360;SDS011;40258;53.936;27.540;2022-10-13T05:07:35;53.20;;;6.75;;
54360;SDS011;40258;53.936;27.540;2022-10-13T05:10:04;43.85;;;5.78;;
54360;SDS011;40258;53.936;27.540;2022-10-13T05:12:32;40.60;;;6.10;;
54360;SDS011;40258;53.936;27.540;2022-10-13T05:15:01;20.42;;;6.47;;
54360;SDS011;40258;53.936;27.540;2022-10-13T05:17:32;17.50;;;7.05;;
54360;SDS011;40258;53.936;27.540;2022-10-13T05:20:05;41.22;;;9.40;;
54360;SDS011;40258;53.936;27.540;2022-10-13T05:22:35;30.30;;;8.25;;
54360;SDS011;40258;53.936;27.540;2022-10-13T05:25:04;32.25;;;9.00;;
54360;SDS011;40258;53.936;27.540;2022-10-13T05:27:33;29.80;;;8.13;;
54360;SDS011;40258;53.936;27.540;2022-10-13T05:30:04;24.75;;;8.55;;
54360;SDS011;40258;53.936;27.540;2022-10-13T05:32:35;39.28;;;8.35;;
54360;SDS011;40258;53.936;27.540;2022-10-13T05:35:04;41.60;;;9.23;;
54360;SDS011;40258;53.936;27.540;2022-10-13T05:37:33;35.05;;;7.47;;
54360;SDS011;40258;53.936;27.540;2022-10-13T05:40:02;30.25;;;8.05;;
54360;SDS011;40258;53.936;27.540;2022-10-13T05:42:31;17.27;;;7.28;;
54360;SDS011;40258;53.936;27.540;2022-10-13T05:45:03;18.58;;;8.27;;
54360;SDS011;40258;53.936;27.540;2022-10-13T05:47:35;26.25;;;8.80;;
54360;SDS011;40258;53.936;27.540;2022-10-13T05:50:04;38.20;;;8.73;;
54360;SDS011;40258;53.936;27.540;2022-10-13T05:52:34;31.50;;;7.55;;
54360;SDS011;40258;53.936;27.540;2022-10-13T05:55:04;21.15;;;7.78;;
54360;SDS011;40258;53.936;27.540;2022-10-13T05:57:38;29.27;;;7.63;;
54360;SDS011;40258;53.936;27.540;2022-10-13T06:00:12;26.05;;;7.57;;
54360;SDS011;40258;53.936;27.540;2022-10-13T06:02:46;36.42;;;9.10;;
54360;SDS011;40258;53.936;27.540;2022-10-13T06:05:20;55.17;;;10.15;;
54360;SDS011;40258;53.936;27.540;2022-10-13T06:07:52;23.08;;;9.52;;
54360;SDS011;40258;53.936;27.540;2022-10-13T06:10:21;52.42;;;11.98;;
54360;SDS011;40258;53.936;27.540;2022-10-13T06:12:50;70.32;;;18.67;;
54360;SDS011;40258;53.936;27.540;2022-10-13T06:15:19;104.10;;;27.63;;
54360;SDS011;40258;53.936;27.540;2022-10-13T06:17:49;93.53;;;26.20;;
54360;SDS011;40258;53.936;27.540;2022-10-13T06:20:17;133.25;;;28.60;;
54360;SDS011;40258;53.936;27.540;2022-10-13T06:22:46;130.75;;;34.97;;
54360;SDS011;40258;53.936;27.540;2022-10-13T06:25:16;123.88;;;25.88;;
54360;SDS011;40258;53.936;27.540;2022-10-13T06:27:44;55.67;;;11.43;;
54360;SDS011;40258;53.936;27.540;2022-10-13T06:30:12;29.50;;;14.13;;
54360;SDS011;40258;53.936;27.540;2022-10-13T06:32:41;26.73;;;11.18;;
54360;SDS011;40258;53.936;27.540;2022-10-13T06:35:11;41.03;;;12.48;;
54360;SDS011;40258;53.936;27.540;2022-10-13T06:37:40;59.60;;;12.27;;
54360;SDS011;40258;53.936;27.540;2022-10-13T06:40:12;40.17;;;10.52;;
54360;SDS011;40258;53.936;27.540;2022-10-13T06:42:40;30.67;;;11.02;;
54360;SDS011;40258;53.936;27.540;2022-10-13T06:45:09;26.75;;;8.93;;
54360;SDS011;40258;53.936;27.540;2022-10-13T06:47:39;16.92;;;8.93;;
54360;SDS011;40258;53.936;27.540;2022-10-13T06:50:08;30.90;;;12.77;;
54360;SDS011;40258;53.936;27.540;2022-10-13T06:52:38;57.45;;;15.05;;
54360;SDS011;40258;53.936;27.540;2022-10-13T06:55:08;39.80;;;14.95;;
54360;SDS011;40258;53.936;27.540;2022-10-13T06:57:37;31.55;;;12.75;;
54360;SDS011;40258;53.936;27.540;2022-10-13T07:00:07;34.47;;;13.32;;
54360;SDS011;40258;53.936;27.540;2022-10-13T07:02:37;37.22;;;15.30;;
54360;SDS011;40258;53.936;27.540;2022-10-13T07:05:07;23.00;;;11.18;;
54360;SDS011;40258;53.936;27.540;2022-10-13T07:07:35;35.25;;;10.98;;
54360;SDS011;40258;53.936;27.540;2022-10-13T07:10:05;28.90;;;11.07;;
54360;SDS011;40258;53.936;27.540;2022-10-13T07:12:35;59.08;;;15.32;;
54360;SDS011;40258;53.936;27.540;2022-10-13T07:15:03;55.25;;;13.65;;
54360;SDS011;40258;53.936;27.540;2022-10-13T07:17:33;35.47;;;12.98;;
54360;SDS011;40258;53.936;27.540;2022-10-13T07:20:01;18.15;;;8.88;;
54360;SDS011;40258;53.936;27.540;2022-10-13T07:22:30;29.30;;;13.57;;
54360;SDS011;40258;53.936;27.540;2022-10-13T07:24:59;32.67;;;13.65;;
54360;SDS011;40258;53.936;27.540;2022-10-13T07:27:29;50.90;;;21.17;;
54360;SDS011;40258;53.936;27.540;2022-10-13T07:29:59;97.55;;;33.22;;
54360;SDS011;40258;53.936;27.540;2022-10-13T07:32:29;57.78;;;23.45;;
54360;SDS011;40258;53.936;27.540;2022-10-13T07:35:01;38.90;;;20.30;;
54360;SDS011;40258;53.936;27.540;2022-10-13T07:37:30;76.13;;;38.38;;
54360;SDS011;40258;53.936;27.540;2022-10-13T07:39:59;68.47;;;31.17;;
54360;SDS011;40258;53.936;27.540;2022-10-13T07:42:29;69.75;;;22.65;;
54360;SDS011;40258;53.936;27.540;2022-10-13T07:44:58;47.05;;;20.63;;
54360;SDS011;40258;53.936;27.540;2022-10-13T07:47:28;45.83;;;20.88;;
54360;SDS011;40258;53.936;27.540;2022-10-13T07:49:56;60.55;;;23.08;;
54360;SDS011;40258;53.936;27.540;2022-10-13T07:52:25;43.90;;;19.80;;
54360;SDS011;40258;53.936;27.540;2022-10-13T07:54:53;49.08;;;17.35;;
54360;SDS011;40258;53.936;27.540;2022-10-13T07:57:24;92.25;;;23.02;;
54360;SDS011;40258;53.936;27.540;2022-10-13T07:59:54;39.03;;;16.27;;
54360;SDS011;40258;53.936;27.540;2022-10-13T08:02:23;67.35;;;21.45;;
54360;SDS011;40258;53.936;27.540;2022-10-13T08:04:51;57.42;;;21.45;;
54360;SDS011;40258;53.936;27.540;2022-10-13T08:07:20;39.78;;;20.33;;
54360;SDS011;40258;53.936;27.540;2022-10-13T08:09:49;32.72;;;16.90;;
54360;SDS011;40258;53.936;27.540;2022-10-13T08:12:18;34.90;;;18.25;;
54360;SDS011;40258;53.936;27.540;2022-10-13T08:14:48;39.42;;;17.40;;
54360;SDS011;40258;53.936;27.540;2022-10-13T08:17:19;26.88;;;13.90;;
54360;SDS011;40258;53.936;27.540;2022-10-13T08:19:49;36.55;;;16.65;;
54360;SDS011;40258;53.936;27.540;2022-10-13T08:22:19;39.95;;;16.30;;
54360;SDS011;40258;53.936;27.540;2022-10-13T08:24:47;39.03;;;16.90;;
54360;SDS011;40258;53.936;27.540;2022-10-13T08:27:17;27.52;;;16.55;;
54360;SDS011;40258;53.936;27.540;2022-10-13T08:29:49;31.23;;;16.98;;
54360;SDS011;40258;53.936;27.540;2022-10-13T08:32:21;30.13;;;16.63;;
54360;SDS011;40258;53.936;27.540;2022-10-13T08:34:49;29.08;;;16.20;;
54360;SDS011;40258;53.936;27.540;2022-10-13T08:37:18;25.48;;;13.18;;
54360;SDS011;40258;53.936;27.540;2022-10-13T08:39:47;26.15;;;14.65;;
54360;SDS011;40258;53.936;27.540;2022-10-13T08:42:16;25.52;;;14.00;;
54360;SDS011;40258;53.936;27.540;2022-10-13T08:44:48;38.75;;;22.00;;
54360;SDS011;40258;53.936;27.540;2022-10-13T08:47:29;28.88;;;18.15;;
54360;SDS011;40258;53.936;27.540;2022-10-13T08:50:09;29.30;;;16.95;;
54360;SDS011;40258;53.936;27.540;2022-10-13T08:52:47;16.95;;;11.95;;
54360;SDS011;40258;53.936;27.540;2022-10-13T08:55:22;29.00;;;16.25;;
54360;SDS011;40258;53.936;27.540;2022-10-13T08:57:56;31.05;;;16.63;;
54360;SDS011;40258;53.936;27.540;2022-10-13T09:00:26;22.05;;;14.57;;
54360;SDS011;40258;53.936;27.540;2022-10-13T09:02:58;18.73;;;12.23;;
54360;SDS011;40258;53.936;27.540;2022-10-13T09:05:50;19.50;;;11.80;;
54360;SDS011;40258;53.936;27.540;2022-10-13T09:08:38;20.42;;;12.95;;
54360;SDS011;40258;53.936;27.540;2022-10-13T09:11:12;20.83;;;14.00;;
54360;SDS011;40258;53.936;27.540;2022-10-13T09:13:40;15.20;;;11.48;;
54360;SDS011;40258;53.936;27.540;2022-10-13T09:16:09;15.27;;;9.80;;
54360;SDS011;40258;53.936;27.540;2022-10-13T09:18:39;17.75;;;10.75;;
54360;SDS011;40258;53.936;27.540;2022-10-13T09:21:18;18.85;;;10.65;;
54360;SDS011;40258;53.936;27.540;2022-10-13T09:23:49;14.88;;;9.70;;
54360;SDS011;40258;53.936;27.540;2022-10-13T09:26:19;12.75;;;9.07;;
54360;SDS011;40258;53.936;27.540;2022-10-13T09:28:51;16.55;;;9.98;;
54360;SDS011;40258;53.936;27.540;2022-10-13T09:31:22;17.63;;;10.98;;
54360;SDS011;40258;53.936;27.540;2022-10-13T09:33:58;16.55;;;9.75;;
54360;SDS011;40258;53.936;27.540;2022-10-13T09:36:28;17.47;;;10.03;;
54360;SDS011;40258;53.936;27.540;2022-10-13T09:39:04;19.10;;;10.80;;
54360;SDS011;40258;53.936;27.540;2022-10-13T09:41:38;14.85;;;9.75;;
54360;SDS011;40258;53.936;27.540;2022-10-13T09:44:09;14.80;;;9.15;;
54360;SDS011;40258;53.936;27.540;2022-10-13T09:46:44;15.27;;;8.57;;
54360;SDS011;40258;53.936;27.540;2022-10-13T09:49:30;16.80;;;9.50;;
54360;SDS011;40258;53.936;27.540;2022-10-13T09:52:05;16.02;;;7.00;;
54360;SDS011;40258;53.936;27.540;2022-10-13T09:54:43;10.40;;;5.95;;
54360;SDS011;40258;53.936;27.540;2022-10-13T09:57:16;8.68;;;4.28;;
54360;SDS011;40258;53.936;27.540;2022-10-13T09:59:57;7.80;;;3.92;;
54360;SDS011;40258;53.936;27.540;2022-10-13T10:02:39;12.23;;;4.10;;
54360;SDS011;40258;53.936;27.540;2022-10-13T10:05:20;10.15;;;3.95;;
54360;SDS011;40258;53.936;27.540;2022-10-13T10:07:55;9.73;;;3.90;;
54360;SDS011;40258;53.936;27.540;2022-10-13T10:10:34;6.07;;;1.90;;
54360;SDS011;40258;53.936;27.540;2022-10-13T10:13:08;7.85;;;2.10;;
54360;SDS011;40258;53.936;27.540;2022-10-13T10:15:42;6.72;;;2.60;;
54360;SDS011;40258;53.936;27.540;2022-10-13T10:18:21;7.25;;;2.45;;
54360;SDS011;40258;53.936;27.540;2022-10-13T10:21:04;7.57;;;1.90;;
54360;SDS011;40258;53.936;27.540;2022-10-13T10:23:39;8.40;;;2.60;;
54360;SDS011;40258;53.936;27.540;2022-10-13T10:26:16;5.57;;;2.08;;
54360;SDS011;40258;53.936;27.540;2022-10-13T10:28:55;8.13;;;2.42;;
54360;SDS011;40258;53.936;27.540;2022-10-13T10:31:54;7.78;;;2.53;;
54360;SDS011;40258;53.936;27.540;2022-10-13T10:34:34;7.13;;;3.33;;
54360;SDS011;40258;53.936;27.540;2022-10-13T10:37:13;9.13;;;3.53;;
54360;SDS011;40258;53.936;27.540;2022-10-13T10:39:47;8.20;;;2.53;;
54360;SDS011;40258;53.936;27.540;2022-10-13T10:42:31;9.57;;;3.15;;
54360;SDS011;40258;53.936;27.540;2022-10-13T10:45:20;10.00;;;4.18;;
54360;SDS011;40258;53.936;27.540;2022-10-13T10:47:53;10.32;;;4.45;;
54360;SDS011;40258;53.936;27.540;2022-10-13T10:50:26;15.50;;;6.00;;
54360;SDS011;40258;53.936;27.540;2022-10-13T10:53:01;16.15;;;4.85;;
54360;SDS011;40258;53.936;27.540;2022-10-13T10:55:42;12.32;;;4.38;;
54360;SDS011;40258;53.936;27.540;2022-10-13T10:58:21;9.70;;;4.15;;
54360;SDS011;40258;53.936;27.540;2022-10-13T11:01:03;11.07;;;3.83;;
54360;SDS011;40258;53.936;27.540;2022-10-13T11:03:42;9.75;;;3.90;;
54360;SDS011;40258;53.936;27.540;2022-10-13T11:06:23;10.80;;;3.28;;
54360;SDS011;40258;53.936;27.540;2022-10-13T11:09:00;10.38;;;4.05;;
54360;SDS011;40258;53.936;27.540;2022-10-13T11:11:31;8.48;;;3.20;;
54360;SDS011;40258;53.936;27.540;2022-10-13T11:17:14;7.60;;;2.33;;
54360;SDS011;40258;53.936;27.540;2022-10-13T11:19:46;9.13;;;3.20;;
54360;SDS011;40258;53.936;27.540;2022-10-13T11:22:17;7.22;;;2.30;;
54360;SDS011;40258;53.936;27.540;2022-10-13T11:24:51;4.78;;;2.30;;
54360;SDS011;40258;53.936;27.540;2022-10-13T11:27:26;5.97;;;2.78;;
54360;SDS011;40258;53.936;27.540;2022-10-13T11:36:44;6.03;;;2.35;;
54360;SDS011;40258;53.936;27.540;2022-10-13T11:42:53;6.80;;;2.10;;
54360;SDS011;40258;53.936;27.540;2022-10-13T11:45:50;7.63;;;2.33;;
54360;SDS011;40258;53.936;27.540;2022-10-13T11:49:13;6.68;;;2.17;;
54360;SDS011;40258;53.936;27.540;2022-10-13T11:52:08;12.32;;;3.53;;
54360;SDS011;40258;53.936;27.540;2022-10-13T11:55:16;9.45;;;3.55;;
54360;SDS011;40258;53.936;27.540;2022-10-13T12:00:18;8.85;;;3.42;;
54360;SDS011;40258;53.936;27.540;2022-10-13T12:02:47;10.43;;;3.00;;
54360;SDS011;40258;53.936;27.540;2022-10-13T12:05:20;5.63;;;2.22;;
54360;SDS011;40258;53.936;27.540;2022-10-13T12:07:50;8.43;;;2.03;;
54360;SDS011;40258;53.936;27.540;2022-10-13T12:10:27;17.85;;;10.55;;
54360;SDS011;40258;53.936;27.540;2022-10-13T12:12:59;7.95;;;2.67;;
54360;SDS011;40258;53.936;27.540;2022-10-13T12:15:31;6.18;;;2.78;;
54360;SDS011;40258;53.936;27.540;2022-10-13T12:18:15;8.68;;;2.90;;
54360;SDS011;40258;53.936;27.540;2022-10-13T12:20:52;9.23;;;3.17;;
54360;SDS011;40258;53.936;27.540;2022-10-13T12:23:22;9.27;;;2.90;;
54360;SDS011;40258;53.936;27.540;2022-10-13T12:25:53;8.55;;;3.17;;
54360;SDS011;40258;53.936;27.540;2022-10-13T12:28:26;9.80;;;3.15;;
54360;SDS011;40258;53.936;27.540;2022-10-13T12:30:58;7.28;;;2.83;;
54360;SDS011;40258;53.936;27.540;2022-10-13T12:33:28;7.75;;;2.83;;
54360;SDS011;40258;53.936;27.540;2022-10-13T12:36:10;8.88;;;2.90;;
54360;SDS011;40258;53.936;27.540;2022-10-13T12:38:41;6.65;;;2.90;;
54360;SDS011;40258;53.936;27.540;2022-10-13T12:41:18;8.68;;;2.85;;
54360;SDS011;40258;53.936;27.540;2022-10-13T12:43:53;7.88;;;3.00;;
54360;SDS011;40258;53.936;27.540;2022-10-13T12:46:35;8.20;;;3.03;;
54360;SDS011;40258;53.936;27.540;2022-10-13T12:49:09;7.32;;;3.20;;
54360;SDS011;40258;53.936;27.540;2022-10-13T12:51:42;5.97;;;2.55;;
54360;SDS011;40258;53.936;27.540;2022-10-13T12:54:16;7.75;;;2.88;;
54360;SDS011;40258;53.936;27.540;2022-10-13T12:56:55;6.65;;;2.50;;
54360;SDS011;40258;53.936;27.540;2022-10-13T12:59:26;9.50;;;2.92;;
54360;SDS011;40258;53.936;27.540;2022-10-13T13:01:58;9.02;;;2.97;;
54360;SDS011;40258;53.936;27.540;2022-10-13T13:04:29;7.50;;;3.03;;
54360;SDS011;40258;53.936;27.540;2022-10-13T13:10:13;7.68;;;2.90;;
54360;SDS011;40258;53.936;27.540;2022-10-13T13:12:46;6.00;;;2.83;;
54360;SDS011;40258;53.936;27.540;2022-10-13T13:15:29;6.95;;;3.22;;
54360;SDS011;40258;53.936;27.540;2022-10-13T13:20:57;8.45;;;3.58;;
54360;SDS011;40258;53.936;27.540;2022-10-13T13:23:27;9.60;;;2.92;;
54360;SDS011;40258;53.936;27.540;2022-10-13T13:26:00;9.60;;;3.35;;
54360;SDS011;40258;53.936;27.540;2022-10-13T13:28:34;9.32;;;3.28;;
54360;SDS011;40258;53.936;27.540;2022-10-13T13:31:03;9.45;;;3.55;;
54360;SDS011;40258;53.936;27.540;2022-10-13T13:33:32;8.02;;;3.45;;
54360;SDS011;40258;53.936;27.540;2022-10-13T13:36:01;8.40;;;3.33;;
54360;SDS011;40258;53.936;27.540;2022-10-13T13:38:30;12.38;;;3.97;;
54360;SDS011;40258;53.936;27.540;2022-10-13T13:40:59;9.00;;;4.03;;
54360;SDS011;40258;53.936;27.540;2022-10-13T13:43:27;11.73;;;3.72;;
54360;SDS011;40258;53.936;27.540;2022-10-13T13:45:58;8.35;;;3.65;;
54360;SDS011;40258;53.936;27.540;2022-10-13T13:48:26;7.72;;;3.47;;
54360;SDS011;40258;53.936;27.540;2022-10-13T13:50:57;10.38;;;3.90;;
54360;SDS011;40258;53.936;27.540;2022-10-13T13:53:25;11.98;;;4.13;;
54360;SDS011;40258;53.936;27.540;2022-10-13T13:55:54;11.10;;;4.53;;
54360;SDS011;40258;53.936;27.540;2022-10-13T13:58:22;11.98;;;4.78;;
54360;SDS011;40258;53.936;27.540;2022-10-13T14:00:51;12.48;;;4.72;;
54360;SDS011;40258;53.936;27.540;2022-10-13T14:03:21;12.35;;;4.75;;
54360;SDS011;40258;53.936;27.540;2022-10-13T14:05:49;12.73;;;7.00;;
54360;SDS011;40258;53.936;27.540;2022-10-13T14:08:18;27.83;;;11.98;;
54360;SDS011;40258;53.936;27.540;2022-10-13T14:10:46;17.48;;;6.82;;
54360;SDS011;40258;53.936;27.540;2022-10-13T14:13:17;10.27;;;5.47;;
54360;SDS011;40258;53.936;27.540;2022-10-13T14:15:54;12.65;;;6.50;;
54360;SDS011;40258;53.936;27.540;2022-10-13T14:18:25;13.60;;;5.10;;
54360;SDS011;40258;53.936;27.540;2022-10-13T14:20:53;16.65;;;7.47;;
54360;SDS011;40258;53.936;27.540;2022-10-13T14:23:22;18.10;;;8.02;;
54360;SDS011;40258;53.936;27.540;2022-10-13T14:25:50;18.27;;;8.40;;
54360;SDS011;40258;53.936;27.540;2022-10-13T14:28:19;20.30;;;9.27;;
54360;SDS011;40258;53.936;27.540;2022-10-13T14:30:48;19.17;;;8.38;;
54360;SDS011;40258;53.936;27.540;2022-10-13T14:33:17;20.77;;;9.23;;
54360;SDS011;40258;53.936;27.540;2022-10-13T14:35:48;19.08;;;8.90;;
54360;SDS011;40258;53.936;27.540;2022-10-13T14:38:17;20.42;;;8.15;;
54360;SDS011;40258;53.936;27.540;2022-10-13T14:40:47;24.20;;;9.30;;
54360;SDS011;40258;53.936;27.540;2022-10-13T14:43:15;24.27;;;9.15;;
54360;SDS011;40258;53.936;27.540;2022-10-13T14:45:43;22.15;;;9.80;;
54360;SDS011;40258;53.936;27.540;2022-10-13T14:48:13;28.60;;;11.93;;
54360;SDS011;40258;53.936;27.540;2022-10-13T14:50:41;21.00;;;9.57;;
54360;SDS011;40258;53.936;27.540;2022-10-13T14:53:11;28.33;;;10.80;;
54360;SDS011;40258;53.936;27.540;2022-10-13T14:55:41;23.45;;;10.05;;
54360;SDS011;40258;53.936;27.540;2022-10-13T14:58:11;25.10;;;10.75;;
54360;SDS011;40258;53.936;27.540;2022-10-13T15:00:41;23.60;;;11.32;;
54360;SDS011;40258;53.936;27.540;2022-10-13T15:03:09;28.65;;;12.15;;
54360;SDS011;40258;53.936;27.540;2022-10-13T15:05:38;33.47;;;13.45;;
54360;SDS011;40258;53.936;27.540;2022-10-13T15:08:06;32.55;;;12.50;;
54360;SDS011;40258;53.936;27.540;2022-10-13T15:10:36;30.92;;;12.70;;
54360;SDS011;40258;53.936;27.540;2022-10-13T15:13:05;32.65;;;12.90;;
54360;SDS011;40258;53.936;27.540;2022-10-13T15:15:33;22.83;;;11.52;;
54360;SDS011;40258;53.936;27.540;2022-10-13T15:18:02;26.67;;;10.80;;
54360;SDS011;40258;53.936;27.540;2022-10-13T15:20:31;23.60;;;10.30;;